sensor_id;sensor_type;location;lat;lon;timestamp;pressure;altitude;pressure_sealevel;temperature;humidity
31285;BME280;56605;51.516;6.742;2023-04-07T00:00:05;101213.28;;;7.18;100.00
31285;BME280;56605;51.516;6.742;2023-04-07T00:02:30;101202.53;;;7.20;100.00
31285;BME280;56605;51.516;6.742;2023-04-07T00:04:57;101211.22;;;7.22;100.00
31285;BME280;56605;51.516;6.742;2023-04-07T00:07:22;101212.34;;;7.19;100.00
31285;BME280;56605;51.516;6.742;2023-04-07T00:09:48;101212.19;;;7.21;100.00
31285;BME280;56605;51.516;6.742;2023-04-07T00:12:13;101214.13;;;7.19;100.00
31285;BME280;56605;51.516;6.742;2023-04-07T00:14:38;101214.28;;;7.17;100.00
31285;BME280;56605;51.516;6.742;2023-04-07T00:17:04;101218.47;;;7.20;100.00
31285;BME280;56605;51.516;6.742;2023-04-07T00:19:29;101218.34;;;7.21;100.00
31285;BME280;56605;51.516;6.742;2023-04-07T00:21:54;101214.72;;;7.22;100.00
31285;BME280;56605;51.516;6.742;2023-04-07T00:24:20;101213.88;;;7.22;100.00
31285;BME280;56605;51.516;6.742;2023-04-07T00:26:45;101219.56;;;7.17;100.00
31285;BME280;56605;51.516;6.742;2023-04-07T00:29:10;101221.25;;;7.18;100.00
31285;BME280;56605;51.516;6.742;2023-04-07T00:31:35;101218.47;;;7.20;100.00
31285;BME280;56605;51.516;6.742;2023-04-07T00:34:01;101219.31;;;7.20;100.00
31285;BME280;56605;51.516;6.742;2023-04-07T00:36:26;101217.78;;;7.18;100.00
31285;BME280;56605;51.516;6.742;2023-04-07T00:38:52;101215.13;;;7.18;100.00
31285;BME280;56605;51.516;6.742;2023-04-07T00:41:18;101214.84;;;7.21;100.00
31285;BME280;56605;51.516;6.742;2023-04-07T00:43:43;101212.59;;;7.16;100.00
31285;BME280;56605;51.516;6.742;2023-04-07T00:46:10;101214.66;;;7.13;100.00
31285;BME280;56605;51.516;6.742;2023-04-07T00:48:35;101213.00;;;7.12;100.00
31285;BME280;56605;51.516;6.742;2023-04-07T00:51:01;101210.59;;;7.08;100.00
31285;BME280;56605;51.516;6.742;2023-04-07T00:53:27;101212.41;;;7.08;100.00
31285;BME280;56605;51.516;6.742;2023-04-07T00:55:53;101206.41;;;7.06;100.00
31285;BME280;56605;51.516;6.742;2023-04-07T00:58:18;101206.28;;;7.07;100.00
31285;BME280;56605;51.516;6.742;2023-04-07T01:01:07;101206.97;;;7.09;100.00
31285;BME280;56605;51.516;6.742;2023-04-07T01:03:38;101203.63;;;7.07;100.00
31285;BME280;56605;51.516;6.742;2023-04-07T01:06:07;101208.94;;;7.07;100.00
31285;BME280;56605;51.516;6.742;2023-04-07T01:08:48;101203.63;;;7.07;100.00
31285;BME280;56605;51.516;6.742;2023-04-07T01:11:53;101211.06;;;7.14;100.00
31285;BME280;56605;51.516;6.742;2023-04-07T01:14:22;101203.09;;;7.14;100.00
31285;BME280;56605;51.516;6.742;2023-04-07T01:16:50;101205.75;;;7.14;100.00
31285;BME280;56605;51.516;6.742;2023-04-07T01:19:33;101205.88;;;7.12;100.00
31285;BME280;56605;51.516;6.742;2023-04-07T01:22:02;101210.06;;;7.15;100.00
31285;BME280;56605;51.516;6.742;2023-04-07T01:25:05;101212.00;;;7.13;100.00
31285;BME280;56605;51.516;6.742;2023-04-07T01:27:51;101211.88;;;7.14;100.00
31285;BME280;56605;51.516;6.742;2023-04-07T01:30:19;101201.97;;;7.16;100.00
31285;BME280;56605;51.516;6.742;2023-04-07T01:32:49;101206.03;;;7.20;100.00
31285;BME280;56605;51.516;6.742;2023-04-07T01:35:16;101204.38;;;7.19;100.00
31285;BME280;56605;51.516;6.742;2023-04-07T01:37:42;101207.03;;;7.19;100.00
31285;BME280;56605;51.516;6.742;2023-04-07T01:40:10;101205.91;;;7.22;100.00
31285;BME280;56605;51.516;6.742;2023-04-07T01:42:37;101209.41;;;7.22;100.00
31285;BME280;56605;51.516;6.742;2023-04-07T01:45:04;101199.59;;;7.23;100.00
31285;BME280;56605;51.516;6.742;2023-04-07T01:47:31;101196.56;;;7.28;100.00
31285;BME280;56605;51.516;6.742;2023-04-07T01:49:58;101206.91;;;7.31;100.00
31285;BME280;56605;51.516;6.742;2023-04-07T01:52:26;101207.47;;;7.34;100.00
31285;BME280;56605;51.516;6.742;2023-04-07T01:54:52;101204.69;;;7.36;100.00
31285;BME280;56605;51.516;6.742;2023-04-07T01:57:18;101208.91;;;7.39;100.00
31285;BME280;56605;51.516;6.742;2023-04-07T01:59:43;101206.38;;;7.37;100.00
31285;BME280;56605;51.516;6.742;2023-04-07T02:02:09;101205.41;;;7.38;100.00
31285;BME280;56605;51.516;6.742;2023-04-07T02:04:36;101207.53;;;7.44;100.00
31285;BME280;56605;51.516;6.742;2023-04-07T02:07:11;101205.00;;;7.43;100.00
31285;BME280;56605;51.516;6.742;2023-04-07T02:09:40;101210.19;;;7.44;100.00
31285;BME280;56605;51.516;6.742;2023-04-07T02:12:08;101205.13;;;7.41;100.00
31285;BME280;56605;51.516;6.742;2023-04-07T02:14:36;101209.84;;;7.38;100.00
31285;BME280;56605;51.516;6.742;2023-04-07T02:17:03;101205.94;;;7.32;100.00
31285;BME280;56605;51.516;6.742;2023-04-07T02:19:29;101197.97;;;7.32;100.00
31285;BME280;56605;51.516;6.742;2023-04-07T02:21:55;101204.00;;;7.44;100.00
31285;BME280;56605;51.516;6.742;2023-04-07T02:24:21;101205.97;;;7.42;100.00
31285;BME280;56605;51.516;6.742;2023-04-07T02:26:46;101211.59;;;7.48;100.00
31285;BME280;56605;51.516;6.742;2023-04-07T02:29:12;101209.78;;;7.49;100.00
31285;BME280;56605;51.516;6.742;2023-04-07T02:31:37;101218.84;;;7.46;100.00
31285;BME280;56605;51.516;6.742;2023-04-07T02:34:03;101214.38;;;7.47;100.00
31285;BME280;56605;51.516;6.742;2023-04-07T02:36:28;101213.38;;;7.48;100.00
31285;BME280;56605;51.516;6.742;2023-04-07T02:38:53;101218.84;;;7.46;100.00
31285;BME280;56605;51.516;6.742;2023-04-07T02:41:19;101218.84;;;7.46;100.00
31285;BME280;56605;51.516;6.742;2023-04-07T02:43:45;101218.84;;;7.46;100.00
31285;BME280;56605;51.516;6.742;2023-04-07T02:46:10;101220.66;;;7.46;100.00
31285;BME280;56605;51.516;6.742;2023-04-07T02:48:35;101225.00;;;7.47;100.00
31285;BME280;56605;51.516;6.742;2023-04-07T02:51:01;101222.88;;;7.41;100.00
31285;BME280;56605;51.516;6.742;2023-04-07T02:53:26;101224.72;;;7.40;100.00
31285;BME280;56605;51.516;6.742;2023-04-07T02:55:51;101219.94;;;7.34;100.00
31285;BME280;56605;51.516;6.742;2023-04-07T02:58:16;101220.91;;;7.33;100.00
31285;BME280;56605;51.516;6.742;2023-04-07T03:00:42;101225.50;;;7.31;100.00
31285;BME280;56605;51.516;6.742;2023-04-07T03:03:07;101224.53;;;7.32;100.00
31285;BME280;56605;51.516;6.742;2023-04-07T03:05:32;101228.88;;;7.33;100.00
31285;BME280;56605;51.516;6.742;2023-04-07T03:07:58;101226.50;;;7.30;100.00
31285;BME280;56605;51.516;6.742;2023-04-07T03:10:23;101226.22;;;7.33;100.00
31285;BME280;56605;51.516;6.742;2023-04-07T03:12:48;101224.53;;;7.32;100.00
31285;BME280;56605;51.516;6.742;2023-04-07T03:15:14;101222.72;;;7.32;100.00
31285;BME280;56605;51.516;6.742;2023-04-07T03:17:41;101225.50;;;7.31;100.00
31285;BME280;56605;51.516;6.742;2023-04-07T03:20:07;101225.50;;;7.31;100.00
31285;BME280;56605;51.516;6.742;2023-04-07T03:22:33;101234.31;;;7.31;100.00
31285;BME280;56605;51.516;6.742;2023-04-07T03:24:58;101222.00;;;7.30;100.00
31285;BME280;56605;51.516;6.742;2023-04-07T03:27:23;101230.81;;;7.31;100.00
31285;BME280;56605;51.516;6.742;2023-04-07T03:29:48;101226.63;;;7.28;100.00
31285;BME280;56605;51.516;6.742;2023-04-07T03:32:15;101232.63;;;7.30;100.00
31285;BME280;56605;51.516;6.742;2023-04-07T03:34:41;101237.38;;;7.27;100.00
31285;BME280;56605;51.516;6.742;2023-04-07T03:37:06;101224.78;;;7.29;100.00
31285;BME280;56605;51.516;6.742;2023-04-07T03:39:31;101231.09;;;7.28;100.00
31285;BME280;56605;51.516;6.742;2023-04-07T03:41:57;101230.66;;;7.22;100.00
31285;BME280;56605;51.516;6.742;2023-04-07T03:44:22;101235.25;;;7.20;100.00
31285;BME280;56605;51.516;6.742;2023-04-07T03:46:47;101236.09;;;7.21;100.00
31285;BME280;56605;51.516;6.742;2023-04-07T03:49:14;101231.47;;;7.23;100.00
31285;BME280;56605;51.516;6.742;2023-04-07T03:51:40;101240.56;;;7.20;100.00
31285;BME280;56605;51.516;6.742;2023-04-07T03:54:05;101239.03;;;7.18;100.00
31285;BME280;56605;51.516;6.742;2023-04-07T03:56:31;101237.44;;;7.15;100.00
31285;BME280;56605;51.516;6.742;2023-04-07T03:58:56;101241.69;;;7.18;100.00
31285;BME280;56605;51.516;6.742;2023-04-07T04:01:22;101240.94;;;7.16;100.00
31285;BME280;56605;51.516;6.742;2023-04-07T04:03:48;101249.06;;;7.14;100.00
31285;BME280;56605;51.516;6.742;2023-04-07T04:06:13;101247.50;;;7.12;100.00
31285;BME280;56605;51.516;6.742;2023-04-07T04:08:39;101249.44;;;7.09;100.00
31285;BME280;56605;51.516;6.742;2023-04-07T04:11:04;101253.94;;;7.09;100.00
31285;BME280;56605;51.516;6.742;2023-04-07T04:13:30;101256.47;;;7.10;100.00
31285;BME280;56605;51.516;6.742;2023-04-07T04:15:55;101248.03;;;7.05;100.00
31285;BME280;56605;51.516;6.742;2023-04-07T04:18:21;101260.78;;;7.12;100.00
31285;BME280;56605;51.516;6.742;2023-04-07T04:20:46;101255.59;;;7.10;100.00
31285;BME280;56605;51.516;6.742;2023-04-07T04:23:13;101263.84;;;7.07;100.00
31285;BME280;56605;51.516;6.742;2023-04-07T04:25:38;101262.97;;;7.06;100.00
31285;BME280;56605;51.516;6.742;2023-04-07T04:28:05;101269.28;;;7.05;100.00
31285;BME280;56605;51.516;6.742;2023-04-07T04:30:30;101261.31;;;7.05;100.00
31285;BME280;56605;51.516;6.742;2023-04-07T04:32:56;101267.59;;;7.04;100.00
31285;BME280;56605;51.516;6.742;2023-04-07T04:35:21;101262.28;;;7.04;100.00
31285;BME280;56605;51.516;6.742;2023-04-07T04:37:49;101268.72;;;7.02;100.00
31285;BME280;56605;51.516;6.742;2023-04-07T04:40:21;101268.41;;;7.05;100.00
31285;BME280;56605;51.516;6.742;2023-04-07T04:42:49;101272.78;;;7.06;100.00
31285;BME280;56605;51.516;6.742;2023-04-07T04:45:41;101282.69;;;7.04;100.00
31285;BME280;56605;51.516;6.742;2023-04-07T04:48:08;101282.28;;;7.08;100.00
31285;BME280;56605;51.516;6.742;2023-04-07T04:50:36;101280.88;;;7.04;100.00
31285;BME280;56605;51.516;6.742;2023-04-07T04:53:02;101285.19;;;7.05;100.00
31285;BME280;56605;51.516;6.742;2023-04-07T04:55:29;101281.56;;;7.06;100.00
31285;BME280;56605;51.516;6.742;2023-04-07T04:57:56;101282.69;;;7.04;100.00
31285;BME280;56605;51.516;6.742;2023-04-07T05:00:22;101284.50;;;7.03;100.00
31285;BME280;56605;51.516;6.742;2023-04-07T05:02:49;101292.47;;;7.03;100.00
31285;BME280;56605;51.516;6.742;2023-04-07T05:05:16;101294.00;;;7.06;100.00
31285;BME280;56605;51.516;6.742;2023-04-07T05:07:42;101289.09;;;7.01;100.00
31285;BME280;56605;51.516;6.742;2023-04-07T05:10:10;101300.56;;;7.02;100.00
31285;BME280;56605;51.516;6.742;2023-04-07T05:12:36;101298.88;;;7.01;100.00
31285;BME280;56605;51.516;6.742;2023-04-07T05:15:04;101295.63;;;6.97;100.00
31285;BME280;56605;51.516;6.742;2023-04-07T05:19:55;101302.06;;;6.94;100.00
31285;BME280;56605;51.516;6.742;2023-04-07T05:22:20;101302.63;;;6.98;100.00
31285;BME280;56605;51.516;6.742;2023-04-07T05:24:45;101311.19;;;7.02;100.00
31285;BME280;56605;51.516;6.742;2023-04-07T05:27:11;101309.09;;;7.05;100.00
31285;BME280;56605;51.516;6.742;2023-04-07T05:29:36;101312.84;;;7.03;100.00
31285;BME280;56605;51.516;6.742;2023-04-07T05:32:04;101310.34;;;7.01;100.00
31285;BME280;56605;51.516;6.742;2023-04-07T05:34:29;101313.25;;;6.98;100.00
31285;BME280;56605;51.516;6.742;2023-04-07T05:36:55;101312.38;;;6.97;100.00
31285;BME280;56605;51.516;6.742;2023-04-07T05:39:20;101322.31;;;6.95;100.00
31285;BME280;56605;51.516;6.742;2023-04-07T05:41:45;101313.38;;;6.96;100.00
31285;BME280;56605;51.516;6.742;2023-04-07T05:44:11;101327.75;;;6.94;100.00
31285;BME280;56605;51.516;6.742;2023-04-07T05:46:36;101318.25;;;6.91;100.00
31285;BME280;56605;51.516;6.742;2023-04-07T05:49:02;101324.84;;;6.97;100.00
31285;BME280;56605;51.516;6.742;2023-04-07T05:51:28;101323.59;;;7.01;100.00
31285;BME280;56605;51.516;6.742;2023-04-07T05:53:53;101323.88;;;6.98;100.00
31285;BME280;56605;51.516;6.742;2023-04-07T05:56:18;101331.69;;;7.00;100.00
31285;BME280;56605;51.516;6.742;2023-04-07T05:58:44;101331.25;;;6.94;100.00
31285;BME280;56605;51.516;6.742;2023-04-07T06:01:09;101330.28;;;6.95;100.00
31285;BME280;56605;51.516;6.742;2023-04-07T06:03:34;101333.25;;;7.02;100.00
31285;BME280;56605;51.516;6.742;2023-04-07T06:05:59;101334.94;;;7.03;100.00
31285;BME280;56605;51.516;6.742;2023-04-07T06:08:25;101335.09;;;7.02;100.00
31285;BME280;56605;51.516;6.742;2023-04-07T06:10:51;101343.03;;;7.02;100.00
31285;BME280;56605;51.516;6.742;2023-04-07T06:13:16;101342.31;;;7.00;100.00
31285;BME280;56605;51.516;6.742;2023-04-07T06:15:41;101339.53;;;7.01;100.00
31285;BME280;56605;51.516;6.742;2023-04-07T06:18:07;101342.06;;;7.03;100.00
31285;BME280;56605;51.516;6.742;2023-04-07T06:20:32;101355.09;;;7.06;100.00
31285;BME280;56605;51.516;6.742;2023-04-07T06:22:57;101346.41;;;7.04;100.00
31285;BME280;56605;51.516;6.742;2023-04-07T06:25:23;101349.38;;;7.10;100.00
31285;BME280;56605;51.516;6.742;2023-04-07T06:27:49;101352.75;;;7.13;100.00
31285;BME280;56605;51.516;6.742;2023-04-07T06:30:14;101352.47;;;7.16;100.00
31285;BME280;56605;51.516;6.742;2023-04-07T06:32:40;101352.22;;;7.19;100.00
31285;BME280;56605;51.516;6.742;2023-04-07T06:35:05;101362.84;;;7.19;100.00
31285;BME280;56605;51.516;6.742;2023-04-07T06:37:31;101359.09;;;7.21;100.00
31285;BME280;56605;51.516;6.742;2023-04-07T06:39:56;101357.03;;;7.25;100.00
31285;BME280;56605;51.516;6.742;2023-04-07T06:42:22;101360.38;;;7.27;100.00
31285;BME280;56605;51.516;6.742;2023-04-07T06:44:50;101365.94;;;7.24;100.00
31285;BME280;56605;51.516;6.742;2023-04-07T06:47:15;101370.75;;;7.30;100.00
31285;BME280;56605;51.516;6.742;2023-04-07T06:49:40;101372.88;;;7.36;100.00
31285;BME280;56605;51.516;6.742;2023-04-07T06:52:06;101374.00;;;7.34;100.00
31285;BME280;56605;51.516;6.742;2023-04-07T06:54:31;101375.41;;;7.38;100.00
31285;BME280;56605;51.516;6.742;2023-04-07T06:56:57;101370.94;;;7.39;100.00
31285;BME280;56605;51.516;6.742;2023-04-07T06:59:22;101383.75;;;7.33;100.00
31285;BME280;56605;51.516;6.742;2023-04-07T07:01:47;101385.59;;;7.33;100.00
31285;BME280;56605;51.516;6.742;2023-04-07T07:04:13;101384.66;;;7.44;100.00
31285;BME280;56605;51.516;6.742;2023-04-07T07:06:38;101384.28;;;7.48;100.00
31285;BME280;56605;51.516;6.742;2023-04-07T07:09:04;101387.66;;;7.51;100.00
31285;BME280;56605;51.516;6.742;2023-04-07T07:11:32;101387.06;;;7.47;100.00
31285;BME280;56605;51.516;6.742;2023-04-07T07:13:58;101383.28;;;7.49;100.00
31285;BME280;56605;51.516;6.742;2023-04-07T07:16:23;101387.66;;;7.51;100.00
31285;BME280;56605;51.516;6.742;2023-04-07T07:18:49;101399.09;;;7.51;100.00
31285;BME280;56605;51.516;6.742;2023-04-07T07:21:16;101391.34;;;7.59;100.00
31285;BME280;56605;51.516;6.742;2023-04-07T07:23:41;101383.94;;;7.63;100.00
31285;BME280;56605;51.516;6.742;2023-04-07T07:26:07;101393.91;;;7.71;100.00
31285;BME280;56605;51.516;6.742;2023-04-07T07:28:32;101393.06;;;7.70;100.00
31285;BME280;56605;51.516;6.742;2023-04-07T07:30:57;101394.56;;;7.63;100.00
31285;BME280;56605;51.516;6.742;2023-04-07T07:33:23;101392.66;;;7.75;100.00
31285;BME280;56605;51.516;6.742;2023-04-07T07:35:48;101401.47;;;7.76;100.00
31285;BME280;56605;51.516;6.742;2023-04-07T07:38:13;101399.50;;;7.78;100.00
31285;BME280;56605;51.516;6.742;2023-04-07T07:40:38;101403.88;;;7.79;100.00
31285;BME280;56605;51.516;6.742;2023-04-07T07:43:04;101398.38;;;7.70;100.00
31285;BME280;56605;51.516;6.742;2023-04-07T07:45:30;101413.56;;;7.90;100.00
31285;BME280;56605;51.516;6.742;2023-04-07T07:47:55;101410.09;;;7.89;100.00
31285;BME280;56605;51.516;6.742;2023-04-07T07:50:20;101406.84;;;7.85;100.00
31285;BME280;56605;51.516;6.742;2023-04-07T07:52:46;101413.91;;;7.75;100.00
31285;BME280;56605;51.516;6.742;2023-04-07T07:55:12;101413.91;;;7.75;100.00
31285;BME280;56605;51.516;6.742;2023-04-07T07:57:37;101422.06;;;7.83;100.00
31285;BME280;56605;51.516;6.742;2023-04-07T08:00:02;101418.97;;;7.78;100.00
31285;BME280;56605;51.516;6.742;2023-04-07T08:02:28;101421.03;;;7.74;100.00
31285;BME280;56605;51.516;6.742;2023-04-07T08:04:56;101422.16;;;7.72;100.00
31285;BME280;56605;51.516;6.742;2023-04-07T08:07:22;101427.03;;;7.67;100.00
31285;BME280;56605;51.516;6.742;2023-04-07T08:09:47;101429.44;;;7.70;100.00
31285;BME280;56605;51.516;6.742;2023-04-07T08:12:14;101428.53;;;7.59;100.00
31285;BME280;56605;51.516;6.742;2023-04-07T08:14:39;101427.22;;;7.54;100.00
31285;BME280;56605;51.516;6.742;2023-04-07T08:17:05;101432.63;;;7.64;100.00
31285;BME280;56605;51.516;6.742;2023-04-07T08:19:30;101435.44;;;7.72;100.00
31285;BME280;56605;51.516;6.742;2023-04-07T08:21:55;101435.91;;;7.77;100.00
31285;BME280;56605;51.516;6.742;2023-04-07T08:24:21;101440.53;;;7.85;100.00
31285;BME280;56605;51.516;6.742;2023-04-07T08:26:46;101434.94;;;7.78;100.00
31285;BME280;56605;51.516;6.742;2023-04-07T08:29:12;101434.34;;;7.74;100.00
31285;BME280;56605;51.516;6.742;2023-04-07T08:31:37;101450.53;;;7.71;100.00
31285;BME280;56605;51.516;6.742;2023-04-07T08:34:02;101446.34;;;7.69;100.00
31285;BME280;56605;51.516;6.742;2023-04-07T08:36:28;101453.06;;;7.73;100.00
31285;BME280;56605;51.516;6.742;2023-04-07T08:38:54;101455.47;;;7.76;100.00
31285;BME280;56605;51.516;6.742;2023-04-07T08:41:25;101460.66;;;7.78;100.00
31285;BME280;56605;51.516;6.742;2023-04-07T08:43:52;101466.06;;;7.66;100.00
31285;BME280;56605;51.516;6.742;2023-04-07T08:46:20;101464.75;;;7.60;100.00
31285;BME280;56605;51.516;6.742;2023-04-07T08:48:49;101474.03;;;7.66;100.00
31285;BME280;56605;51.516;6.742;2023-04-07T08:51:23;101471.69;;;7.52;100.00
31285;BME280;56605;51.516;6.742;2023-04-07T08:53:52;101467.22;;;7.52;100.00
31285;BME280;56605;51.516;6.742;2023-04-07T08:56:19;101470.53;;;7.44;100.00
31285;BME280;56605;51.516;6.742;2023-04-07T08:58:47;101473.13;;;7.56;100.00
31285;BME280;56605;51.516;6.742;2023-04-07T09:01:13;101470.72;;;7.53;100.00
31285;BME280;56605;51.516;6.742;2023-04-07T09:03:41;101475.91;;;7.54;100.00
31285;BME280;56605;51.516;6.742;2023-04-07T09:06:08;101487.03;;;7.48;100.00
31285;BME280;56605;51.516;6.742;2023-04-07T09:08:35;101479.66;;;7.52;100.00
31285;BME280;56605;51.516;6.742;2023-04-07T09:11:01;101482.59;;;7.48;100.00
31285;BME280;56605;51.516;6.742;2023-04-07T09:13:27;101492.81;;;7.53;100.00
31285;BME280;56605;51.516;6.742;2023-04-07T09:15:52;101487.81;;;7.60;100.00
31285;BME280;56605;51.516;6.742;2023-04-07T09:18:18;101494.44;;;7.66;100.00
31285;BME280;56605;51.516;6.742;2023-04-07T09:21:00;101486.41;;;7.77;100.00
31285;BME280;56605;51.516;6.742;2023-04-07T09:23:30;101485.59;;;7.86;100.00
31285;BME280;56605;51.516;6.742;2023-04-07T09:25:56;101489.50;;;7.82;100.00
31285;BME280;56605;51.516;6.742;2023-04-07T09:28:24;101487.75;;;7.93;100.00
31285;BME280;56605;51.516;6.742;2023-04-07T09:30:53;101491.91;;;8.07;100.00
31285;BME280;56605;51.516;6.742;2023-04-07T09:33:26;101489.97;;;8.19;100.00
31285;BME280;56605;51.516;6.742;2023-04-07T09:35:52;101493.66;;;8.28;100.00
31285;BME280;56605;51.516;6.742;2023-04-07T09:38:18;101489.69;;;8.22;100.00
31285;BME280;56605;51.516;6.742;2023-04-07T09:40:43;101490.25;;;8.16;100.00
31285;BME280;56605;51.516;6.742;2023-04-07T09:43:14;101489.56;;;7.92;100.00
31285;BME280;56605;51.516;6.742;2023-04-07T09:45:40;101500.47;;;7.89;100.00
31285;BME280;56605;51.516;6.742;2023-04-07T09:48:39;101496.25;;;7.86;100.00
31285;BME280;56605;51.516;6.742;2023-04-07T09:53:41;101495.06;;;8.01;100.00
31285;BME280;56605;51.516;6.742;2023-04-07T09:56:09;101500.53;;;7.99;100.00
31285;BME280;56605;51.516;6.742;2023-04-07T09:58:37;101502.53;;;8.07;100.00
31285;BME280;56605;51.516;6.742;2023-04-07T10:01:05;101499.28;;;8.03;100.00
31285;BME280;56605;51.516;6.742;2023-04-07T10:03:32;101505.50;;;7.92;100.00
31285;BME280;56605;51.516;6.742;2023-04-07T10:05:59;101494.19;;;7.90;100.00
31285;BME280;56605;51.516;6.742;2023-04-07T10:08:25;101499.53;;;8.00;100.00
31285;BME280;56605;51.516;6.742;2023-04-07T10:10:51;101498.78;;;8.19;100.00
31285;BME280;56605;51.516;6.742;2023-04-07T10:13:18;101498.66;;;8.21;100.00
31285;BME280;56605;51.516;6.742;2023-04-07T10:15:43;101500.47;;;8.20;100.00
31285;BME280;56605;51.516;6.742;2023-04-07T10:18:09;101502.44;;;8.18;100.00
31285;BME280;56605;51.516;6.742;2023-04-07T10:20:37;101511.69;;;8.24;100.00
31285;BME280;56605;51.516;6.742;2023-04-07T10:23:21;101510.44;;;8.28;100.00
31285;BME280;56605;51.516;6.742;2023-04-07T10:25:48;101510.84;;;8.23;100.00
31285;BME280;56605;51.516;6.742;2023-04-07T10:28:15;101514.22;;;8.25;100.00
31285;BME280;56605;51.516;6.742;2023-04-07T10:30:42;101508.81;;;8.37;100.00
31285;BME280;56605;51.516;6.742;2023-04-07T10:33:09;101510.84;;;8.55;100.00
31285;BME280;56605;51.516;6.742;2023-04-07T10:38:28;101509.53;;;8.80;100.00
31285;BME280;56605;51.516;6.742;2023-04-07T10:40:53;101515.44;;;8.84;100.00
31285;BME280;56605;51.516;6.742;2023-04-07T10:43:45;101516.00;;;8.87;100.00
31285;BME280;56605;51.516;6.742;2023-04-07T10:46:10;101520.19;;;8.80;100.00
31285;BME280;56605;51.516;6.742;2023-04-07T10:48:36;101521.44;;;8.76;100.00
31285;BME280;56605;51.516;6.742;2023-04-07T10:53:30;101522.03;;;8.99;100.00
31285;BME280;56605;51.516;6.742;2023-04-07T10:55:56;101516.31;;;9.04;100.00
31285;BME280;56605;51.516;6.742;2023-04-07T10:58:32;101529.75;;;9.12;100.00
31285;BME280;56605;51.516;6.742;2023-04-07T11:03:34;101518.69;;;9.07;100.00
31285;BME280;56605;51.516;6.742;2023-04-07T11:06:04;101525.13;;;9.05;100.00
31285;BME280;56605;51.516;6.742;2023-04-07T11:08:40;101530.06;;;9.19;100.00
31285;BME280;56605;51.516;6.742;2023-04-07T11:11:07;101520.41;;;9.28;100.00
31285;BME280;56605;51.516;6.742;2023-04-07T11:13:49;101529.34;;;9.27;100.00
31285;BME280;56605;51.516;6.742;2023-04-07T11:16:17;101525.28;;;9.23;100.00
31285;BME280;56605;51.516;6.742;2023-04-07T11:18:43;101525.16;;;9.24;100.00
31285;BME280;56605;51.516;6.742;2023-04-07T11:21:09;101529.47;;;9.25;100.00
31285;BME280;56605;51.516;6.742;2023-04-07T11:23:42;101523.88;;;9.19;100.00
31285;BME280;56605;51.516;6.742;2023-04-07T11:26:10;101524.00;;;9.27;100.00
31285;BME280;56605;51.516;6.742;2023-04-07T11:28:46;101527.22;;;9.11;100.00
31285;BME280;56605;51.516;6.742;2023-04-07T11:31:11;101531.44;;;9.04;100.00
31285;BME280;56605;51.516;6.742;2023-04-07T11:33:38;101534.13;;;9.13;100.00
31285;BME280;56605;51.516;6.742;2023-04-07T11:36:05;101538.75;;;9.21;100.00
31285;BME280;56605;51.516;6.742;2023-04-07T11:38:35;101537.91;;;9.31;100.00
31285;BME280;56605;51.516;6.742;2023-04-07T11:41:12;101538.47;;;9.34;100.00
31285;BME280;56605;51.516;6.742;2023-04-07T11:43:38;101542.28;;;9.42;100.00
31285;BME280;56605;51.516;6.742;2023-04-07T11:48:35;101550.25;;;9.12;100.00
31285;BME280;56605;51.516;6.742;2023-04-07T11:51:01;101552.00;;;8.92;100.00
31285;BME280;56605;51.516;6.742;2023-04-07T11:53:35;101554.66;;;8.82;100.00
31285;BME280;56605;51.516;6.742;2023-04-07T11:56:04;101554.50;;;8.73;100.00
31285;BME280;56605;51.516;6.742;2023-04-07T11:58:30;101558.97;;;9.34;100.00
31285;BME280;56605;51.516;6.742;2023-04-07T12:00:57;101553.03;;;8.59;100.00
31285;BME280;56605;51.516;6.742;2023-04-07T12:03:23;101561.22;;;8.46;100.00
31285;BME280;56605;51.516;6.742;2023-04-07T12:05:48;101573.25;;;8.41;100.00
31285;BME280;56605;51.516;6.742;2023-04-07T12:08:14;101572.09;;;8.33;100.00
31285;BME280;56605;51.516;6.742;2023-04-07T12:10:44;101569.34;;;8.45;100.00
31285;BME280;56605;51.516;6.742;2023-04-07T12:13:12;101574.00;;;8.53;100.00
31285;BME280;56605;51.516;6.742;2023-04-07T12:15:37;101570.13;;;8.57;100.00
31285;BME280;56605;51.516;6.742;2023-04-07T12:18:03;101582.59;;;8.56;100.00
31285;BME280;56605;51.516;6.742;2023-04-07T12:20:28;101577.41;;;8.55;100.00
31285;BME280;56605;51.516;6.742;2023-04-07T12:22:54;101579.13;;;8.66;100.00
31285;BME280;56605;51.516;6.742;2023-04-07T12:25:19;101589.50;;;8.69;100.00
31285;BME280;56605;51.516;6.742;2023-04-07T12:27:44;101587.59;;;8.81;100.00
31285;BME280;56605;51.516;6.742;2023-04-07T12:30:10;101590.41;;;8.79;100.00
31285;BME280;56605;51.516;6.742;2023-04-07T12:32:36;101594.19;;;8.86;100.00
31285;BME280;56605;51.516;6.742;2023-04-07T12:35:02;101591.06;;;8.71;100.00
31285;BME280;56605;51.516;6.742;2023-04-07T12:37:27;101580.66;;;8.68;100.00
31285;BME280;56605;51.516;6.742;2023-04-07T12:39:53;101598.91;;;8.73;100.00
31285;BME280;56605;51.516;6.742;2023-04-07T12:42:18;101597.50;;;8.69;100.00
31285;BME280;56605;51.516;6.742;2023-04-07T12:44:43;101597.66;;;8.77;100.00
31285;BME280;56605;51.516;6.742;2023-04-07T12:47:08;101607.19;;;8.80;100.00
31285;BME280;56605;51.516;6.742;2023-04-07T12:49:36;101601.59;;;8.83;100.00
31285;BME280;56605;51.516;6.742;2023-04-07T12:52:01;101602.47;;;8.93;100.00
31285;BME280;56605;51.516;6.742;2023-04-07T12:54:27;101607.41;;;8.98;100.00
31285;BME280;56605;51.516;6.742;2023-04-07T12:56:53;101607.13;;;9.01;100.00
31285;BME280;56605;51.516;6.742;2023-04-07T12:59:18;101609.94;;;8.99;100.00
31285;BME280;56605;51.516;6.742;2023-04-07T13:01:43;101612.84;;;8.96;100.00
31285;BME280;56605;51.516;6.742;2023-04-07T13:04:09;101608.53;;;8.95;100.00